BTS weather

M. R. Štefánik Airport
Bratislava, Bratislava, Slovakia

Public forecast

Using degrees Celsius for public forecast. Weather courtesy of forecast.io.

Current aviation weather report (METAR) for M. R. Štefánik Airport

Retrieved 2020/02/29 05:30 UTC (7 minutes ago):

LZIB 290530Z 14007KT CAVOK 01/M04 Q1015 NOSIG

Aviation forecast (TAF) for M. R. Štefánik Airport

Retrieved 2020-02-29 00:47 UTC (5 hours ago):

TAF LZIB 282300Z 2900/0100 23006KT CAVOK BECMG 2902/2904 16012KT BECMG 2906/2908 9999 SCT040 BKN090 TEMPO 2908/2912 -RA BKN035 TEMPO 2912/2918 17015G25KT